sensor_id;sensor_type;location;lat;lon;timestamp;P1;durP1;ratioP1;P2;durP2;ratioP2
7919;SDS011;18778;47.610;9.776;2023-01-10T00:00:24;1.30;;;1.20;;
7919;SDS011;18778;47.610;9.776;2023-01-10T00:02:56;1.20;;;1.20;;
7919;SDS011;18778;47.610;9.776;2023-01-10T00:05:22;1.30;;;1.30;;
7919;SDS011;18778;47.610;9.776;2023-01-10T00:07:47;1.70;;;1.30;;
7919;SDS011;18778;47.610;9.776;2023-01-10T00:10:13;1.20;;;1.20;;
7919;SDS011;18778;47.610;9.776;2023-01-10T00:12:39;1.40;;;1.40;;
7919;SDS011;18778;47.610;9.776;2023-01-10T00:15:23;1.27;;;1.10;;
7919;SDS011;18778;47.610;9.776;2023-01-10T00:17:48;1.20;;;1.13;;
7919;SDS011;18778;47.610;9.776;2023-01-10T00:20:14;1.10;;;1.10;;
7919;SDS011;18778;47.610;9.776;2023-01-10T00:22:40;1.30;;;1.30;;
7919;SDS011;18778;47.610;9.776;2023-01-10T00:25:05;1.53;;;1.43;;
7919;SDS011;18778;47.610;9.776;2023-01-10T00:27:31;1.20;;;1.20;;
7919;SDS011;18778;47.610;9.776;2023-01-10T00:29:57;1.10;;;1.10;;
7919;SDS011;18778;47.610;9.776;2023-01-10T00:32:25;1.10;;;1.10;;
7919;SDS011;18778;47.610;9.776;2023-01-10T00:34:51;1.30;;;1.30;;
7919;SDS011;18778;47.610;9.776;2023-01-10T00:37:16;1.20;;;1.20;;
7919;SDS011;18778;47.610;9.776;2023-01-10T00:39:42;1.67;;;1.57;;
7919;SDS011;18778;47.610;9.776;2023-01-10T00:42:08;1.13;;;1.13;;
7919;SDS011;18778;47.610;9.776;2023-01-10T00:44:53;1.20;;;1.20;;
7919;SDS011;18778;47.610;9.776;2023-01-10T00:47:19;1.20;;;1.20;;
7919;SDS011;18778;47.610;9.776;2023-01-10T00:49:45;1.27;;;1.23;;
7919;SDS011;18778;47.610;9.776;2023-01-10T00:52:10;1.27;;;1.27;;
7919;SDS011;18778;47.610;9.776;2023-01-10T00:54:36;1.30;;;1.30;;
7919;SDS011;18778;47.610;9.776;2023-01-10T00:57:02;1.40;;;1.40;;
7919;SDS011;18778;47.610;9.776;2023-01-10T00:59:27;1.33;;;1.33;;
7919;SDS011;18778;47.610;9.776;2023-01-10T01:01:53;1.30;;;1.30;;
7919;SDS011;18778;47.610;9.776;2023-01-10T01:04:19;1.80;;;1.30;;
7919;SDS011;18778;47.610;9.776;2023-01-10T01:06:45;1.43;;;1.33;;
7919;SDS011;18778;47.610;9.776;2023-01-10T01:09:12;1.40;;;1.30;;
7919;SDS011;18778;47.610;9.776;2023-01-10T01:11:38;1.40;;;1.40;;
7919;SDS011;18778;47.610;9.776;2023-01-10T01:14:04;1.40;;;1.40;;
7919;SDS011;18778;47.610;9.776;2023-01-10T01:16:30;1.27;;;1.27;;
7919;SDS011;18778;47.610;9.776;2023-01-10T01:18:56;1.20;;;1.20;;
7919;SDS011;18778;47.610;9.776;2023-01-10T01:21:22;1.20;;;1.20;;
7919;SDS011;18778;47.610;9.776;2023-01-10T01:23:52;1.33;;;1.33;;
7919;SDS011;18778;47.610;9.776;2023-01-10T01:26:21;1.43;;;1.43;;
7919;SDS011;18778;47.610;9.776;2023-01-10T01:28:50;1.40;;;1.40;;
7919;SDS011;18778;47.610;9.776;2023-01-10T01:31:15;1.20;;;1.20;;
7919;SDS011;18778;47.610;9.776;2023-01-10T01:33:41;1.03;;;1.03;;
7919;SDS011;18778;47.610;9.776;2023-01-10T01:36:07;1.30;;;1.30;;
7919;SDS011;18778;47.610;9.776;2023-01-10T01:38:35;1.57;;;1.47;;
7919;SDS011;18778;47.610;9.776;2023-01-10T01:41:01;2.10;;;1.67;;
7919;SDS011;18778;47.610;9.776;2023-01-10T01:43:27;1.63;;;1.63;;
7919;SDS011;18778;47.610;9.776;2023-01-10T01:45:56;1.60;;;1.60;;
7919;SDS011;18778;47.610;9.776;2023-01-10T01:51:05;2.53;;;1.70;;
7919;SDS011;18778;47.610;9.776;2023-01-10T01:53:39;1.70;;;1.70;;
7919;SDS011;18778;47.610;9.776;2023-01-10T01:56:13;1.50;;;1.50;;
7919;SDS011;18778;47.610;9.776;2023-01-10T01:58:52;1.83;;;1.80;;
7919;SDS011;18778;47.610;9.776;2023-01-10T02:01:26;2.10;;;2.00;;
7919;SDS011;18778;47.610;9.776;2023-01-10T02:03:56;2.20;;;2.10;;
7919;SDS011;18778;47.610;9.776;2023-01-10T02:06:31;1.90;;;1.80;;
7919;SDS011;18778;47.610;9.776;2023-01-10T02:09:17;2.63;;;2.40;;
7919;SDS011;18778;47.610;9.776;2023-01-10T02:11:49;1.90;;;1.83;;
7919;SDS011;18778;47.610;9.776;2023-01-10T02:14:15;2.00;;;1.63;;
7919;SDS011;18778;47.610;9.776;2023-01-10T02:16:41;2.23;;;2.03;;
7919;SDS011;18778;47.610;9.776;2023-01-10T02:19:10;2.30;;;2.20;;
7919;SDS011;18778;47.610;9.776;2023-01-10T02:21:57;2.07;;;1.97;;
7919;SDS011;18778;47.610;9.776;2023-01-10T02:24:51;2.10;;;2.00;;
7919;SDS011;18778;47.610;9.776;2023-01-10T02:27:31;2.47;;;2.30;;
7919;SDS011;18778;47.610;9.776;2023-01-10T02:30:34;2.10;;;2.00;;
7919;SDS011;18778;47.610;9.776;2023-01-10T02:33:13;2.20;;;2.10;;
7919;SDS011;18778;47.610;9.776;2023-01-10T02:38:21;2.33;;;2.23;;
7919;SDS011;18778;47.610;9.776;2023-01-10T02:43:49;2.00;;;1.90;;
7919;SDS011;18778;47.610;9.776;2023-01-10T02:46:20;2.97;;;2.60;;
7919;SDS011;18778;47.610;9.776;2023-01-10T02:48:51;2.20;;;2.10;;
7919;SDS011;18778;47.610;9.776;2023-01-10T02:51:19;2.73;;;2.20;;
7919;SDS011;18778;47.610;9.776;2023-01-10T02:53:59;2.30;;;2.20;;
7919;SDS011;18778;47.610;9.776;2023-01-10T03:07:45;2.20;;;2.00;;
7919;SDS011;18778;47.610;9.776;2023-01-10T03:16:00;2.50;;;2.30;;
7919;SDS011;18778;47.610;9.776;2023-01-10T03:18:42;2.00;;;1.90;;
7919;SDS011;18778;47.610;9.776;2023-01-10T03:21:12;3.67;;;2.33;;
7919;SDS011;18778;47.610;9.776;2023-01-10T03:23:39;2.10;;;2.00;;
7919;SDS011;18778;47.610;9.776;2023-01-10T03:26:05;3.20;;;2.20;;
7919;SDS011;18778;47.610;9.776;2023-01-10T03:28:55;2.10;;;2.00;;
7919;SDS011;18778;47.610;9.776;2023-01-10T03:31:29;2.00;;;1.90;;
7919;SDS011;18778;47.610;9.776;2023-01-10T03:33:59;2.17;;;2.07;;
7919;SDS011;18778;47.610;9.776;2023-01-10T03:36:40;2.30;;;2.10;;
7919;SDS011;18778;47.610;9.776;2023-01-10T03:39:21;2.17;;;2.07;;
7919;SDS011;18778;47.610;9.776;2023-01-10T03:41:51;2.17;;;1.97;;
7919;SDS011;18778;47.610;9.776;2023-01-10T03:47:31;2.40;;;1.70;;
7919;SDS011;18778;47.610;9.776;2023-01-10T03:50:06;1.97;;;1.77;;
7919;SDS011;18778;47.610;9.776;2023-01-10T03:52:35;1.73;;;1.63;;
7919;SDS011;18778;47.610;9.776;2023-01-10T03:55:04;2.07;;;1.90;;
7919;SDS011;18778;47.610;9.776;2023-01-10T03:57:31;2.27;;;2.17;;
7919;SDS011;18778;47.610;9.776;2023-01-10T03:59:57;2.20;;;1.93;;
7919;SDS011;18778;47.610;9.776;2023-01-10T04:02:30;2.03;;;1.90;;
7919;SDS011;18778;47.610;9.776;2023-01-10T04:04:56;2.97;;;2.30;;
7919;SDS011;18778;47.610;9.776;2023-01-10T04:07:23;3.53;;;1.90;;
7919;SDS011;18778;47.610;9.776;2023-01-10T04:09:49;3.83;;;1.93;;
7919;SDS011;18778;47.610;9.776;2023-01-10T04:12:15;2.57;;;2.17;;
7919;SDS011;18778;47.610;9.776;2023-01-10T04:14:40;2.20;;;2.10;;
7919;SDS011;18778;47.610;9.776;2023-01-10T04:17:06;2.57;;;2.37;;
7919;SDS011;18778;47.610;9.776;2023-01-10T04:19:34;3.07;;;2.80;;
7919;SDS011;18778;47.610;9.776;2023-01-10T04:22:00;2.63;;;2.43;;
7919;SDS011;18778;47.610;9.776;2023-01-10T04:24:25;3.47;;;3.17;;
7919;SDS011;18778;47.610;9.776;2023-01-10T04:26:51;3.10;;;2.83;;
7919;SDS011;18778;47.610;9.776;2023-01-10T04:29:17;4.53;;;3.00;;
7919;SDS011;18778;47.610;9.776;2023-01-10T04:31:42;3.20;;;2.70;;
7919;SDS011;18778;47.610;9.776;2023-01-10T04:34:08;3.07;;;2.60;;
7919;SDS011;18778;47.610;9.776;2023-01-10T04:36:34;5.37;;;2.90;;
7919;SDS011;18778;47.610;9.776;2023-01-10T04:39:00;4.63;;;3.03;;
7919;SDS011;18778;47.610;9.776;2023-01-10T04:41:26;3.53;;;3.10;;
7919;SDS011;18778;47.610;9.776;2023-01-10T04:43:52;7.27;;;3.47;;
7919;SDS011;18778;47.610;9.776;2023-01-10T04:46:17;7.47;;;2.97;;
7919;SDS011;18778;47.610;9.776;2023-01-10T04:48:43;4.87;;;3.07;;
7919;SDS011;18778;47.610;9.776;2023-01-10T04:51:08;4.97;;;3.07;;
7919;SDS011;18778;47.610;9.776;2023-01-10T04:53:34;5.60;;;2.83;;
7919;SDS011;18778;47.610;9.776;2023-01-10T04:56:06;6.80;;;3.23;;
7919;SDS011;18778;47.610;9.776;2023-01-10T04:58:34;6.27;;;3.03;;
7919;SDS011;18778;47.610;9.776;2023-01-10T05:01:12;6.77;;;3.23;;
7919;SDS011;18778;47.610;9.776;2023-01-10T05:03:40;2.97;;;2.47;;
7919;SDS011;18778;47.610;9.776;2023-01-10T05:06:06;4.77;;;2.60;;
7919;SDS011;18778;47.610;9.776;2023-01-10T05:08:32;4.23;;;2.30;;
7919;SDS011;18778;47.610;9.776;2023-01-10T05:10:57;6.20;;;2.93;;
7919;SDS011;18778;47.610;9.776;2023-01-10T05:13:23;5.70;;;2.60;;
7919;SDS011;18778;47.610;9.776;2023-01-10T05:15:52;6.17;;;2.67;;
7919;SDS011;18778;47.610;9.776;2023-01-10T05:18:20;7.37;;;2.83;;
7919;SDS011;18778;47.610;9.776;2023-01-10T05:20:45;6.63;;;2.63;;
7919;SDS011;18778;47.610;9.776;2023-01-10T05:23:11;7.40;;;2.43;;
7919;SDS011;18778;47.610;9.776;2023-01-10T05:25:36;4.43;;;3.10;;
7919;SDS011;18778;47.610;9.776;2023-01-10T05:28:02;4.93;;;2.80;;
7919;SDS011;18778;47.610;9.776;2023-01-10T05:30:27;7.37;;;2.63;;
7919;SDS011;18778;47.610;9.776;2023-01-10T05:32:53;6.57;;;2.70;;
7919;SDS011;18778;47.610;9.776;2023-01-10T05:35:18;9.17;;;2.77;;
7919;SDS011;18778;47.610;9.776;2023-01-10T05:37:44;5.93;;;2.80;;
7919;SDS011;18778;47.610;9.776;2023-01-10T05:40:10;8.43;;;2.40;;
7919;SDS011;18778;47.610;9.776;2023-01-10T05:42:35;6.97;;;2.13;;
7919;SDS011;18778;47.610;9.776;2023-01-10T05:45:01;6.63;;;2.53;;
7919;SDS011;18778;47.610;9.776;2023-01-10T05:47:27;6.10;;;3.07;;
7919;SDS011;18778;47.610;9.776;2023-01-10T05:49:52;4.43;;;2.67;;
7919;SDS011;18778;47.610;9.776;2023-01-10T05:52:18;7.87;;;2.30;;
7919;SDS011;18778;47.610;9.776;2023-01-10T05:54:44;6.67;;;2.47;;
7919;SDS011;18778;47.610;9.776;2023-01-10T05:57:09;6.57;;;2.60;;
7919;SDS011;18778;47.610;9.776;2023-01-10T05:59:35;6.57;;;2.23;;
7919;SDS011;18778;47.610;9.776;2023-01-10T06:02:00;5.30;;;2.87;;
7919;SDS011;18778;47.610;9.776;2023-01-10T06:04:26;7.00;;;3.10;;
7919;SDS011;18778;47.610;9.776;2023-01-10T06:06:51;8.60;;;2.33;;
7919;SDS011;18778;47.610;9.776;2023-01-10T06:09:17;8.43;;;2.90;;
7919;SDS011;18778;47.610;9.776;2023-01-10T06:11:42;9.17;;;2.97;;
7919;SDS011;18778;47.610;9.776;2023-01-10T06:14:08;3.47;;;2.53;;
7919;SDS011;18778;47.610;9.776;2023-01-10T06:16:34;5.87;;;2.60;;
7919;SDS011;18778;47.610;9.776;2023-01-10T06:18:59;8.67;;;2.60;;
7919;SDS011;18778;47.610;9.776;2023-01-10T06:21:25;6.30;;;2.53;;
7919;SDS011;18778;47.610;9.776;2023-01-10T06:23:51;5.43;;;2.60;;
7919;SDS011;18778;47.610;9.776;2023-01-10T06:26:16;5.70;;;2.77;;
7919;SDS011;18778;47.610;9.776;2023-01-10T06:28:42;6.87;;;2.97;;
7919;SDS011;18778;47.610;9.776;2023-01-10T06:31:08;4.30;;;2.60;;
7919;SDS011;18778;47.610;9.776;2023-01-10T06:33:34;8.00;;;2.50;;
7919;SDS011;18778;47.610;9.776;2023-01-10T06:36:00;5.43;;;2.37;;
7919;SDS011;18778;47.610;9.776;2023-01-10T06:38:26;2.23;;;2.10;;
7919;SDS011;18778;47.610;9.776;2023-01-10T06:40:51;5.37;;;2.50;;
7919;SDS011;18778;47.610;9.776;2023-01-10T06:43:17;5.03;;;2.57;;
7919;SDS011;18778;47.610;9.776;2023-01-10T06:45:42;7.50;;;3.03;;
7919;SDS011;18778;47.610;9.776;2023-01-10T06:48:08;6.80;;;2.67;;
7919;SDS011;18778;47.610;9.776;2023-01-10T06:50:33;3.03;;;2.60;;
7919;SDS011;18778;47.610;9.776;2023-01-10T06:53:00;4.47;;;2.30;;
7919;SDS011;18778;47.610;9.776;2023-01-10T06:55:27;10.40;;;3.00;;
7919;SDS011;18778;47.610;9.776;2023-01-10T06:57:57;8.33;;;2.80;;
7919;SDS011;18778;47.610;9.776;2023-01-10T07:00:27;7.00;;;2.37;;
7919;SDS011;18778;47.610;9.776;2023-01-10T07:02:54;9.33;;;2.63;;
7919;SDS011;18778;47.610;9.776;2023-01-10T07:05:22;7.63;;;2.80;;
7919;SDS011;18778;47.610;9.776;2023-01-10T07:07:49;6.33;;;2.57;;
7919;SDS011;18778;47.610;9.776;2023-01-10T07:10:14;3.93;;;2.40;;
7919;SDS011;18778;47.610;9.776;2023-01-10T07:12:40;6.70;;;2.50;;
7919;SDS011;18778;47.610;9.776;2023-01-10T07:15:06;5.53;;;2.60;;
7919;SDS011;18778;47.610;9.776;2023-01-10T07:17:32;6.77;;;3.03;;
7919;SDS011;18778;47.610;9.776;2023-01-10T07:19:57;7.07;;;2.70;;
7919;SDS011;18778;47.610;9.776;2023-01-10T07:22:23;5.67;;;2.53;;
7919;SDS011;18778;47.610;9.776;2023-01-10T07:24:48;7.83;;;2.30;;
7919;SDS011;18778;47.610;9.776;2023-01-10T07:27:14;4.07;;;2.13;;
7919;SDS011;18778;47.610;9.776;2023-01-10T07:29:40;4.10;;;2.67;;
7919;SDS011;18778;47.610;9.776;2023-01-10T07:32:05;6.97;;;2.87;;
7919;SDS011;18778;47.610;9.776;2023-01-10T07:34:31;8.97;;;4.43;;
7919;SDS011;18778;47.610;9.776;2023-01-10T07:36:56;5.60;;;2.60;;
7919;SDS011;18778;47.610;9.776;2023-01-10T07:39:22;5.83;;;2.53;;
7919;SDS011;18778;47.610;9.776;2023-01-10T07:41:48;6.53;;;2.27;;
7919;SDS011;18778;47.610;9.776;2023-01-10T07:44:14;6.80;;;2.57;;
7919;SDS011;18778;47.610;9.776;2023-01-10T07:46:40;6.37;;;2.70;;
7919;SDS011;18778;47.610;9.776;2023-01-10T07:49:05;5.30;;;2.70;;
7919;SDS011;18778;47.610;9.776;2023-01-10T07:51:31;6.40;;;2.57;;
7919;SDS011;18778;47.610;9.776;2023-01-10T07:53:57;4.97;;;2.87;;
7919;SDS011;18778;47.610;9.776;2023-01-10T07:56:23;7.43;;;3.80;;
7919;SDS011;18778;47.610;9.776;2023-01-10T07:58:49;10.13;;;2.83;;
7919;SDS011;18778;47.610;9.776;2023-01-10T08:01:14;5.77;;;2.77;;
7919;SDS011;18778;47.610;9.776;2023-01-10T08:03:40;4.93;;;2.50;;
7919;SDS011;18778;47.610;9.776;2023-01-10T08:06:07;6.17;;;2.80;;
7919;SDS011;18778;47.610;9.776;2023-01-10T08:08:37;5.23;;;2.60;;
7919;SDS011;18778;47.610;9.776;2023-01-10T08:11:03;5.00;;;2.50;;
7919;SDS011;18778;47.610;9.776;2023-01-10T08:13:29;4.63;;;2.50;;
7919;SDS011;18778;47.610;9.776;2023-01-10T08:15:55;5.93;;;3.47;;
7919;SDS011;18778;47.610;9.776;2023-01-10T08:18:21;5.13;;;2.60;;
7919;SDS011;18778;47.610;9.776;2023-01-10T08:20:48;7.87;;;2.97;;
7919;SDS011;18778;47.610;9.776;2023-01-10T08:23:15;9.60;;;3.20;;
7919;SDS011;18778;47.610;9.776;2023-01-10T08:25:41;7.10;;;2.97;;
7919;SDS011;18778;47.610;9.776;2023-01-10T08:28:07;6.43;;;2.77;;
7919;SDS011;18778;47.610;9.776;2023-01-10T08:30:32;6.87;;;2.80;;
7919;SDS011;18778;47.610;9.776;2023-01-10T08:33:00;6.53;;;2.80;;
7919;SDS011;18778;47.610;9.776;2023-01-10T08:35:27;8.17;;;2.97;;
7919;SDS011;18778;47.610;9.776;2023-01-10T08:37:53;3.03;;;2.30;;
7919;SDS011;18778;47.610;9.776;2023-01-10T08:40:22;4.73;;;2.90;;
7919;SDS011;18778;47.610;9.776;2023-01-10T08:42:47;2.90;;;2.10;;
7919;SDS011;18778;47.610;9.776;2023-01-10T08:45:19;3.70;;;2.40;;
7919;SDS011;18778;47.610;9.776;2023-01-10T08:47:45;6.57;;;2.83;;
7919;SDS011;18778;47.610;9.776;2023-01-10T08:50:10;9.00;;;2.93;;
7919;SDS011;18778;47.610;9.776;2023-01-10T08:52:36;4.43;;;2.60;;
7919;SDS011;18778;47.610;9.776;2023-01-10T08:55:02;6.33;;;2.97;;
7919;SDS011;18778;47.610;9.776;2023-01-10T08:57:27;4.70;;;2.30;;
7919;SDS011;18778;47.610;9.776;2023-01-10T08:59:53;7.60;;;2.30;;
7919;SDS011;18778;47.610;9.776;2023-01-10T09:02:18;4.77;;;2.30;;
7919;SDS011;18778;47.610;9.776;2023-01-10T09:04:44;6.10;;;2.70;;
7919;SDS011;18778;47.610;9.776;2023-01-10T09:07:09;6.60;;;2.60;;
7919;SDS011;18778;47.610;9.776;2023-01-10T09:09:35;6.47;;;2.00;;
7919;SDS011;18778;47.610;9.776;2023-01-10T09:12:01;4.47;;;2.20;;
7919;SDS011;18778;47.610;9.776;2023-01-10T09:14:46;4.57;;;2.20;;
7919;SDS011;18778;47.610;9.776;2023-01-10T09:17:13;4.93;;;2.30;;
7919;SDS011;18778;47.610;9.776;2023-01-10T09:19:38;6.17;;;2.13;;
7919;SDS011;18778;47.610;9.776;2023-01-10T09:22:04;3.83;;;2.00;;
7919;SDS011;18778;47.610;9.776;2023-01-10T09:24:29;4.43;;;2.67;;
7919;SDS011;18778;47.610;9.776;2023-01-10T09:26:55;7.10;;;2.50;;
7919;SDS011;18778;47.610;9.776;2023-01-10T09:29:20;4.90;;;2.30;;
7919;SDS011;18778;47.610;9.776;2023-01-10T09:31:46;5.03;;;2.27;;
7919;SDS011;18778;47.610;9.776;2023-01-10T09:34:11;7.93;;;2.60;;
7919;SDS011;18778;47.610;9.776;2023-01-10T09:36:37;6.57;;;2.50;;
7919;SDS011;18778;47.610;9.776;2023-01-10T09:39:02;4.30;;;2.40;;
7919;SDS011;18778;47.610;9.776;2023-01-10T09:46:49;4.33;;;2.20;;
7919;SDS011;18778;47.610;9.776;2023-01-10T09:52:08;7.00;;;2.50;;
7919;SDS011;18778;47.610;9.776;2023-01-10T09:54:43;6.73;;;2.47;;
7919;SDS011;18778;47.610;9.776;2023-01-10T09:57:15;3.43;;;2.20;;
7919;SDS011;18778;47.610;9.776;2023-01-10T09:59:43;4.30;;;2.00;;
7919;SDS011;18778;47.610;9.776;2023-01-10T10:02:22;5.77;;;2.50;;
7919;SDS011;18778;47.610;9.776;2023-01-10T10:07:42;7.00;;;2.70;;
7919;SDS011;18778;47.610;9.776;2023-01-10T10:10:19;12.07;;;3.60;;
7919;SDS011;18778;47.610;9.776;2023-01-10T10:18:42;5.53;;;2.30;;
7919;SDS011;18778;47.610;9.776;2023-01-10T10:21:18;6.07;;;2.40;;
7919;SDS011;18778;47.610;9.776;2023-01-10T10:26:32;4.97;;;2.00;;
7919;SDS011;18778;47.610;9.776;2023-01-10T10:39:55;4.47;;;2.00;;
7919;SDS011;18778;47.610;9.776;2023-01-10T10:42:27;5.53;;;2.43;;
7919;SDS011;18778;47.610;9.776;2023-01-10T10:44:57;3.43;;;2.47;;
7919;SDS011;18778;47.610;9.776;2023-01-10T10:47:33;6.00;;;2.53;;
7919;SDS011;18778;47.610;9.776;2023-01-10T10:52:41;7.60;;;2.67;;
7919;SDS011;18778;47.610;9.776;2023-01-10T10:55:15;5.50;;;2.70;;
7919;SDS011;18778;47.610;9.776;2023-01-10T10:57:42;7.20;;;2.93;;
7919;SDS011;18778;47.610;9.776;2023-01-10T11:00:13;7.33;;;3.07;;
7919;SDS011;18778;47.610;9.776;2023-01-10T11:03:15;7.53;;;2.83;;
7919;SDS011;18778;47.610;9.776;2023-01-10T11:05:35;8.10;;;3.70;;
7919;SDS011;18778;47.610;9.776;2023-01-10T11:08:04;3.87;;;2.23;;
7919;SDS011;18778;47.610;9.776;2023-01-10T11:10:35;6.50;;;2.33;;
7919;SDS011;18778;47.610;9.776;2023-01-10T11:13:12;5.03;;;2.23;;
7919;SDS011;18778;47.610;9.776;2023-01-10T11:15:59;4.50;;;2.00;;
7919;SDS011;18778;47.610;9.776;2023-01-10T11:18:27;4.70;;;2.53;;
7919;SDS011;18778;47.610;9.776;2023-01-10T11:20:55;2.50;;;1.87;;
7919;SDS011;18778;47.610;9.776;2023-01-10T11:25:58;4.10;;;1.80;;
7919;SDS011;18778;47.610;9.776;2023-01-10T11:28:25;3.57;;;1.70;;
7919;SDS011;18778;47.610;9.776;2023-01-10T11:30:54;3.50;;;1.80;;
7919;SDS011;18778;47.610;9.776;2023-01-10T11:33:21;3.20;;;1.70;;
7919;SDS011;18778;47.610;9.776;2023-01-10T11:35:57;5.30;;;1.83;;
7919;SDS011;18778;47.610;9.776;2023-01-10T11:38:25;4.17;;;2.13;;
7919;SDS011;18778;47.610;9.776;2023-01-10T11:40:55;3.10;;;1.83;;
7919;SDS011;18778;47.610;9.776;2023-01-10T11:43:25;4.70;;;1.93;;
7919;SDS011;18778;47.610;9.776;2023-01-10T11:46:00;7.73;;;2.10;;
7919;SDS011;18778;47.610;9.776;2023-01-10T11:51:23;5.10;;;1.60;;
7919;SDS011;18778;47.610;9.776;2023-01-10T11:53:56;4.20;;;1.60;;
7919;SDS011;18778;47.610;9.776;2023-01-10T11:56:24;5.40;;;1.93;;
7919;SDS011;18778;47.610;9.776;2023-01-10T11:58:56;3.30;;;1.77;;
7919;SDS011;18778;47.610;9.776;2023-01-10T12:01:24;4.80;;;1.67;;
7919;SDS011;18778;47.610;9.776;2023-01-10T12:04:13;4.60;;;1.80;;
7919;SDS011;18778;47.610;9.776;2023-01-10T12:06:47;3.67;;;1.70;;
7919;SDS011;18778;47.610;9.776;2023-01-10T12:09:33;3.13;;;1.87;;
7919;SDS011;18778;47.610;9.776;2023-01-10T12:12:25;3.87;;;1.40;;
7919;SDS011;18778;47.610;9.776;2023-01-10T12:15:00;3.17;;;1.60;;
7919;SDS011;18778;47.610;9.776;2023-01-10T12:17:46;7.23;;;1.93;;
7919;SDS011;18778;47.610;9.776;2023-01-10T12:20:12;4.17;;;1.80;;
7919;SDS011;18778;47.610;9.776;2023-01-10T12:27:54;4.10;;;1.57;;
7919;SDS011;18778;47.610;9.776;2023-01-10T12:33:22;7.83;;;1.93;;
7919;SDS011;18778;47.610;9.776;2023-01-10T12:38:31;3.63;;;1.67;;
7919;SDS011;18778;47.610;9.776;2023-01-10T12:41:26;5.57;;;1.90;;
7919;SDS011;18778;47.610;9.776;2023-01-10T12:44:34;5.77;;;1.93;;
7919;SDS011;18778;47.610;9.776;2023-01-10T12:52:34;2.73;;;1.47;;
7919;SDS011;18778;47.610;9.776;2023-01-10T12:55:16;3.60;;;1.70;;
7919;SDS011;18778;47.610;9.776;2023-01-10T12:57:47;4.60;;;1.93;;
7919;SDS011;18778;47.610;9.776;2023-01-10T13:00:20;3.43;;;1.90;;
7919;SDS011;18778;47.610;9.776;2023-01-10T13:02:48;3.73;;;1.60;;
7919;SDS011;18778;47.610;9.776;2023-01-10T13:05:21;2.90;;;1.77;;
7919;SDS011;18778;47.610;9.776;2023-01-10T13:07:50;3.03;;;1.77;;
7919;SDS011;18778;47.610;9.776;2023-01-10T13:10:22;3.87;;;1.60;;
7919;SDS011;18778;47.610;9.776;2023-01-10T13:12:59;2.67;;;1.60;;
7919;SDS011;18778;47.610;9.776;2023-01-10T13:15:40;3.67;;;1.70;;
7919;SDS011;18778;47.610;9.776;2023-01-10T13:18:22;2.13;;;1.70;;
7919;SDS011;18778;47.610;9.776;2023-01-10T13:21:00;4.13;;;1.80;;
7919;SDS011;18778;47.610;9.776;2023-01-10T13:23:50;4.43;;;1.60;;
7919;SDS011;18778;47.610;9.776;2023-01-10T13:26:17;4.63;;;1.93;;
7919;SDS011;18778;47.610;9.776;2023-01-10T13:28:56;3.10;;;1.53;;
7919;SDS011;18778;47.610;9.776;2023-01-10T13:31:30;3.33;;;1.57;;
7919;SDS011;18778;47.610;9.776;2023-01-10T13:34:02;5.13;;;1.80;;
7919;SDS011;18778;47.610;9.776;2023-01-10T13:36:35;5.40;;;1.43;;
7919;SDS011;18778;47.610;9.776;2023-01-10T13:39:06;3.03;;;1.70;;
7919;SDS011;18778;47.610;9.776;2023-01-10T14:00:41;3.53;;;1.90;;
7919;SDS011;18778;47.610;9.776;2023-01-10T14:08:52;2.47;;;1.47;;
7919;SDS011;18778;47.610;9.776;2023-01-10T14:11:18;2.90;;;1.70;;
7919;SDS011;18778;47.610;9.776;2023-01-10T14:17:09;2.00;;;1.70;;
7919;SDS011;18778;47.610;9.776;2023-01-10T14:19:42;2.80;;;1.50;;
7919;SDS011;18778;47.610;9.776;2023-01-10T14:22:22;4.10;;;1.70;;
7919;SDS011;18778;47.610;9.776;2023-01-10T14:24:51;2.80;;;1.60;;
7919;SDS011;18778;47.610;9.776;2023-01-10T14:27:17;5.07;;;1.63;;
7919;SDS011;18778;47.610;9.776;2023-01-10T14:29:57;5.30;;;2.80;;
7919;SDS011;18778;47.610;9.776;2023-01-10T14:32:32;3.17;;;2.00;;
7919;SDS011;18778;47.610;9.776;2023-01-10T14:35:03;4.83;;;1.97;;
7919;SDS011;18778;47.610;9.776;2023-01-10T14:37:32;2.20;;;2.00;;
7919;SDS011;18778;47.610;9.776;2023-01-10T14:40:05;4.00;;;2.10;;
7919;SDS011;18778;47.610;9.776;2023-01-10T14:42:55;2.30;;;2.00;;
7919;SDS011;18778;47.610;9.776;2023-01-10T14:45:47;4.77;;;2.10;;
7919;SDS011;18778;47.610;9.776;2023-01-10T14:50:46;2.60;;;1.87;;
7919;SDS011;18778;47.610;9.776;2023-01-10T14:53:23;3.50;;;1.80;;
7919;SDS011;18778;47.610;9.776;2023-01-10T14:55:53;4.60;;;2.17;;
7919;SDS011;18778;47.610;9.776;2023-01-10T14:58:19;2.80;;;1.80;;
7919;SDS011;18778;47.610;9.776;2023-01-10T15:00:46;2.50;;;1.63;;
7919;SDS011;18778;47.610;9.776;2023-01-10T15:03:16;3.17;;;1.67;;
7919;SDS011;18778;47.610;9.776;2023-01-10T15:05:45;6.03;;;1.80;;
7919;SDS011;18778;47.610;9.776;2023-01-10T15:10:46;3.20;;;2.43;;
7919;SDS011;18778;47.610;9.776;2023-01-10T15:13:16;3.23;;;1.90;;
7919;SDS011;18778;47.610;9.776;2023-01-10T15:15:45;3.20;;;2.03;;
7919;SDS011;18778;47.610;9.776;2023-01-10T15:21:03;2.63;;;1.53;;
7919;SDS011;18778;47.610;9.776;2023-01-10T15:23:34;2.50;;;1.63;;
7919;SDS011;18778;47.610;9.776;2023-01-10T15:26:02;6.80;;;2.63;;
7919;SDS011;18778;47.610;9.776;2023-01-10T15:28:43;3.13;;;2.23;;
7919;SDS011;18778;47.610;9.776;2023-01-10T15:31:13;3.37;;;2.30;;
7919;SDS011;18778;47.610;9.776;2023-01-10T15:33:41;2.63;;;2.00;;
7919;SDS011;18778;47.610;9.776;2023-01-10T15:36:11;5.20;;;1.93;;
7919;SDS011;18778;47.610;9.776;2023-01-10T15:38:44;2.90;;;2.10;;
7919;SDS011;18778;47.610;9.776;2023-01-10T15:41:15;4.70;;;2.17;;
7919;SDS011;18778;47.610;9.776;2023-01-10T15:43:43;2.93;;;1.80;;
7919;SDS011;18778;47.610;9.776;2023-01-10T15:46:20;2.03;;;1.83;;
7919;SDS011;18778;47.610;9.776;2023-01-10T15:48:57;3.43;;;2.00;;
7919;SDS011;18778;47.610;9.776;2023-01-10T15:51:29;4.60;;;2.50;;
7919;SDS011;18778;47.610;9.776;2023-01-10T15:59:22;4.03;;;2.50;;
7919;SDS011;18778;47.610;9.776;2023-01-10T16:01:52;4.03;;;2.20;;
7919;SDS011;18778;47.610;9.776;2023-01-10T16:04:33;6.17;;;3.70;;
7919;SDS011;18778;47.610;9.776;2023-01-10T16:07:04;3.57;;;3.20;;
7919;SDS011;18778;47.610;9.776;2023-01-10T16:09:36;3.93;;;3.37;;
7919;SDS011;18778;47.610;9.776;2023-01-10T16:12:03;8.63;;;3.30;;
7919;SDS011;18778;47.610;9.776;2023-01-10T16:14:48;5.40;;;3.77;;
7919;SDS011;18778;47.610;9.776;2023-01-10T16:17:13;5.10;;;4.53;;
7919;SDS011;18778;47.610;9.776;2023-01-10T16:19:39;9.67;;;6.80;;
7919;SDS011;18778;47.610;9.776;2023-01-10T16:22:04;6.00;;;5.37;;
7919;SDS011;18778;47.610;9.776;2023-01-10T16:24:31;6.87;;;4.90;;
7919;SDS011;18778;47.610;9.776;2023-01-10T16:26:59;4.40;;;4.00;;
7919;SDS011;18778;47.610;9.776;2023-01-10T16:29:29;6.80;;;4.03;;
7919;SDS011;18778;47.610;9.776;2023-01-10T16:31:55;5.10;;;4.27;;
7919;SDS011;18778;47.610;9.776;2023-01-10T16:34:21;3.80;;;3.50;;
7919;SDS011;18778;47.610;9.776;2023-01-10T16:36:48;4.80;;;4.27;;
7919;SDS011;18778;47.610;9.776;2023-01-10T16:39:14;10.90;;;5.13;;
7919;SDS011;18778;47.610;9.776;2023-01-10T16:41:42;5.47;;;4.63;;
7919;SDS011;18778;47.610;9.776;2023-01-10T16:44:27;9.23;;;5.20;;
7919;SDS011;18778;47.610;9.776;2023-01-10T16:46:53;19.27;;;9.87;;
7919;SDS011;18778;47.610;9.776;2023-01-10T16:49:19;19.50;;;10.83;;
7919;SDS011;18778;47.610;9.776;2023-01-10T16:51:45;17.63;;;11.87;;
7919;SDS011;18778;47.610;9.776;2023-01-10T16:54:18;19.90;;;12.13;;
7919;SDS011;18778;47.610;9.776;2023-01-10T16:56:46;13.00;;;8.37;;
7919;SDS011;18778;47.610;9.776;2023-01-10T16:59:12;13.40;;;9.20;;
7919;SDS011;18778;47.610;9.776;2023-01-10T17:01:40;12.27;;;8.27;;
7919;SDS011;18778;47.610;9.776;2023-01-10T17:04:10;11.60;;;7.33;;
7919;SDS011;18778;47.610;9.776;2023-01-10T17:06:39;9.30;;;7.23;;
7919;SDS011;18778;47.610;9.776;2023-01-10T17:09:06;9.37;;;6.63;;
7919;SDS011;18778;47.610;9.776;2023-01-10T17:11:33;7.30;;;6.60;;
7919;SDS011;18778;47.610;9.776;2023-01-10T17:14:01;8.77;;;5.33;;
7919;SDS011;18778;47.610;9.776;2023-01-10T17:16:28;7.87;;;5.30;;
7919;SDS011;18778;47.610;9.776;2023-01-10T17:18:53;7.80;;;6.30;;